Time;durP1;ratioP1;P1;durP2;ratioP2;P2;SDS_P1;SDS_P2;PMS_P1;PMS_P2;Temp;Humidity;BMP_temperature;BMP_pressure;BME280_temperature;BME280_humidity;BME280_pressure;Samples;Min_cycle;Max_cycle;Signal;HPM_P1;HPM_P2
2022/11/07 00:01:17;;;;;;;5.57;3.05;;;;;;;14.66;60.31;100636.25;5053086;28;20049;-67
2022/11/07 00:03:44;;;;;;;4.38;3.05;;;;;;;14.66;60.59;100641.66;5066461;28;20086;-67
2022/11/07 00:06:12;;;;;;;6.22;3.53;;;;;;;14.67;60.68;100634.38;5072668;28;20465;-68
2022/11/07 00:08:38;;;;;;;5.25;3.30;;;;;;;14.67;60.57;100643.34;5072816;28;20391;-68
2022/11/07 00:11:05;;;;;;;6.57;3.63;;;;;;;14.67;60.28;100647.91;5072850;28;20032;-68
2022/11/07 00:13:32;;;;;;;6.10;3.03;;;;;;;14.68;60.41;100645.06;5072436;28;20088;-68
2022/11/07 00:16:00;;;;;;;5.07;3.10;;;;;;;14.69;60.54;100652.19;5054955;28;20767;-68
2022/11/07 00:18:27;;;;;;;5.47;3.30;;;;;;;14.70;60.41;100650.31;5052761;28;20091;-67
2022/11/07 00:20:53;;;;;;;7.95;2.97;;;;;;;14.71;60.42;100649.34;5052627;28;20057;-68
2022/11/07 00:23:20;;;;;;;6.05;2.78;;;;;;;14.72;60.52;100654.59;5065202;28;20094;-68
2022/11/07 00:25:47;;;;;;;7.03;3.88;;;;;;;14.74;60.83;100654.47;5054735;28;20414;-68
2022/11/07 00:28:14;;;;;;;5.93;3.20;;;;;;;14.76;60.84;100650.63;5054972;28;20063;-68
2022/11/07 00:30:40;;;;;;;7.40;3.50;;;;;;;14.77;60.64;100657.72;5051380;28;20053;-68
2022/11/07 00:33:07;;;;;;;6.55;3.42;;;;;;;14.80;60.57;100653.91;5052284;28;20049;-68
2022/11/07 00:35:39;;;;;;;6.53;3.17;;;;;;;14.79;60.67;100661.16;5052489;28;20040;-66
2022/11/07 00:38:06;;;;;;;6.07;2.88;;;;;;;14.81;60.73;100667.28;5052410;28;20046;-68
2022/11/07 00:40:32;;;;;;;7.13;3.08;;;;;;;14.83;60.69;100664.44;5054171;28;20045;-68
2022/11/07 00:42:59;;;;;;;6.03;2.90;;;;;;;14.83;60.57;100667.13;5072279;28;20528;-68
2022/11/07 00:45:29;;;;;;;9.30;3.30;;;;;;;14.84;60.59;100669.69;5072586;28;20086;-68
2022/11/07 00:47:56;;;;;;;6.25;3.13;;;;;;;14.83;60.39;100664.44;5072161;28;20106;-68
2022/11/07 00:50:22;;;;;;;6.97;2.85;;;;;;;14.82;60.55;100668.13;5054455;28;20452;-68
2022/11/07 00:52:49;;;;;;;8.77;3.35;;;;;;;14.80;60.42;100673.69;5064627;28;20045;-68
2022/11/07 00:55:15;;;;;;;6.88;3.53;;;;;;;14.79;60.77;100671.09;5052189;28;20065;-68
2022/11/07 00:57:42;;;;;;;7.22;3.22;;;;;;;14.76;60.45;100668.69;5052181;28;20553;-69
2022/11/07 01:00:09;;;;;;;4.85;3.00;;;;;;;14.74;60.69;100668.81;5051974;28;20106;-69
2022/11/07 01:02:36;;;;;;;4.28;2.95;;;;;;;14.72;60.31;100678.06;5057086;28;20037;-69
2022/11/07 01:05:11;;;;;;;7.50;3.08;;;;;;;14.69;60.56;100668.41;5072704;28;20065;-68
2022/11/07 01:07:39;;;;;;;7.28;3.10;;;;;;;14.67;60.29;100662.28;5071799;28;20524;-68
2022/11/07 01:10:07;;;;;;;4.22;2.80;;;;;;;14.63;60.46;100667.09;5072725;28;20044;-69
2022/11/07 01:12:35;;;;;;;7.85;2.78;;;;;;;14.60;60.75;100675.50;5071521;28;20094;-69
2022/11/07 01:15:03;;;;;;;5.53;2.95;;;;;;;14.60;60.37;100671.94;5062494;28;20033;-68
2022/11/07 01:17:30;;;;;;;6.40;3.63;;;;;;;14.61;60.88;100679.91;5051669;28;20045;-68
2022/11/07 01:19:56;;;;;;;5.32;3.00;;;;;;;14.61;60.84;100681.75;5051667;28;20549;-69
2022/11/07 01:22:23;;;;;;;7.65;3.50;;;;;;;14.59;60.58;100678.34;5055991;28;20040;-68
2022/11/07 01:24:51;;;;;;;6.57;3.13;;;;;;;14.59;60.51;100689.16;5071682;28;20044;-68
2022/11/07 01:27:17;;;;;;;5.18;2.72;;;;;;;14.58;60.69;100690.13;5070126;28;20048;-69
2022/11/07 01:29:44;;;;;;;3.72;2.92;;;;;;;14.57;60.74;100691.97;5053798;28;20090;-68
2022/11/07 01:32:10;;;;;;;5.22;3.25;;;;;;;14.57;60.73;100688.44;5055856;28;20099;-68
2022/11/07 01:34:40;;;;;;;10.02;3.20;;;;;;;14.58;60.53;100692.84;5051384;28;20445;-69
2022/11/07 01:37:07;;;;;;;7.28;3.17;;;;;;;14.56;60.51;100692.97;5051510;28;20454;-68
2022/11/07 01:39:33;;;;;;;9.43;3.03;;;;;;;14.56;60.75;100706.50;5051484;28;20041;-68
2022/11/07 01:42:00;;;;;;;8.73;2.65;;;;;;;14.55;60.54;100704.78;5064229;28;20367;-69
2022/11/07 01:44:28;;;;;;;9.52;3.33;;;;;;;14.55;60.90;100703.94;5071526;28;20105;-69
2022/11/07 01:46:58;;;;;;;9.57;3.20;;;;;;;14.55;60.96;100699.38;5071194;28;20397;-69
2022/11/07 01:49:36;;;;;;;6.97;3.10;;;;;;;14.53;60.89;100701.38;5071228;28;20086;-69
2022/11/07 01:52:08;;;;;;;5.40;2.80;;;;;;;14.54;61.05;100702.22;5070427;28;20044;-68
2022/11/07 01:54:42;;;;;;;6.72;2.72;;;;;;;14.53;60.96;100695.97;5051268;28;20049;-68
2022/11/07 01:57:19;;;;;;;7.78;3.15;;;;;;;14.53;60.68;100695.09;5051175;28;20057;-69
2022/11/07 01:59:47;;;;;;;7.47;3.08;;;;;;;14.51;60.76;100697.94;5051316;28;20037;-68
2022/11/07 02:02:14;;;;;;;6.35;3.13;;;;;;;14.50;61.05;100701.63;5050932;28;20049;-68
2022/11/07 02:04:45;;;;;;;6.68;2.72;;;;;;;14.49;60.74;100691.81;5051823;28;20056;-68
2022/11/07 02:07:19;;;;;;;6.40;3.25;;;;;;;14.49;61.11;100696.38;5050886;28;20061;-68
2022/11/07 02:09:47;;;;;;;6.88;2.97;;;;;;;14.49;60.86;100693.66;5051239;28;20079;-68
2022/11/07 02:12:14;;;;;;;7.25;2.92;;;;;;;14.50;61.14;100690.81;5051582;28;20045;-68
2022/11/07 02:14:42;;;;;;;4.80;3.00;;;;;;;14.50;61.13;100698.09;5051043;28;20044;-68
2022/11/07 02:17:13;;;;;;;7.47;3.15;;;;;;;14.50;61.28;100695.38;5051095;28;20091;-67
2022/11/07 02:19:48;;;;;;;9.20;2.80;;;;;;;14.51;61.42;100703.34;5050813;28;20143;-68
2022/11/07 02:22:35;;;;;;;10.77;3.95;;;;;;;14.51;61.26;100711.44;5051168;28;20110;-68
2022/11/07 02:25:07;;;;;;;9.50;3.10;;;;;;;14.54;61.25;100711.19;5051108;28;20048;-68
2022/11/07 02:27:33;;;;;;;6.93;2.92;;;;;;;14.56;61.16;100706.50;5051997;28;20036;-68
2022/11/07 02:30:22;;;;;;;8.40;3.42;;;;;;;14.57;61.53;100704.63;5050950;28;20083;-68
2022/11/07 02:32:49;;;;;;;7.95;2.75;;;;;;;14.61;61.20;100706.94;5058109;28;20107;-68
2022/11/07 02:35:37;;;;;;;8.15;3.50;;;;;;;14.62;61.22;100702.38;5071587;28;20040;-68
2022/11/07 02:38:20;;;;;;;7.20;3.00;;;;;;;14.63;61.08;100704.94;5071063;28;20102;-69
2022/11/07 02:40:59;;;;;;;9.18;2.58;;;;;;;14.65;61.14;100694.00;5074810;28;20544;-69
2022/11/07 02:43:28;;;;;;;8.65;2.80;;;;;;;14.65;61.49;100698.53;5055801;28;20109;-68
2022/11/07 02:45:59;;;;;;;8.07;2.75;;;;;;;14.66;61.15;100714.63;5056585;28;20094;-68
2022/11/07 02:48:30;;;;;;;5.30;2.65;;;;;;;14.64;61.08;100711.19;5054559;28;20049;-68
2022/11/07 02:50:58;;;;;;;9.68;3.13;;;;;;;14.62;61.21;100721.28;5054344;28;20041;-69
2022/11/07 02:53:25;;;;;;;6.63;2.72;;;;;;;14.61;61.28;100719.59;5065395;28;20364;-68
2022/11/07 02:55:52;;;;;;;10.23;2.75;;;;;;;14.61;61.42;100706.94;5058744;28;20069;-68
2022/11/07 02:58:18;;;;;;;9.25;2.80;;;;;;;14.64;61.46;100700.38;5054397;28;20557;-69
2022/11/07 03:00:45;;;;;;;7.35;3.38;;;;;;;14.65;61.39;100696.69;5054006;28;20098;-69
2022/11/07 03:03:12;;;;;;;6.20;3.08;;;;;;;14.66;61.61;100700.25;5063059;28;20036;-68
2022/11/07 03:05:40;;;;;;;9.07;3.20;;;;;;;14.66;61.49;100694.84;5074323;28;20127;-69
2022/11/07 03:08:07;;;;;;;11.23;2.88;;;;;;;14.66;61.16;100693.00;5074015;28;20118;-68
2022/11/07 03:10:33;;;;;;;8.70;2.70;;;;;;;14.67;61.45;100691.16;5056770;28;20486;-68
2022/11/07 03:13:00;;;;;;;13.68;3.08;;;;;;;14.68;61.39;100691.00;5053712;28;20102;-68
2022/11/07 03:15:30;;;;;;;7.25;3.00;;;;;;;14.68;61.72;100680.19;5063609;28;20106;-68
2022/11/07 03:17:58;;;;;;;12.43;3.35;;;;;;;14.68;61.23;100687.44;5074046;28;20044;-68
2022/11/07 03:20:24;;;;;;;9.52;3.20;;;;;;;14.67;61.62;100692.00;5073755;28;20098;-68
2022/11/07 03:22:51;;;;;;;9.75;3.38;;;;;;;14.68;61.20;100695.56;5072153;28;20048;-68
2022/11/07 03:25:21;;;;;;;9.20;3.25;;;;;;;14.66;61.18;100694.84;5074336;28;20041;-68
2022/11/07 03:27:49;;;;;;;9.95;3.60;;;;;;;14.66;61.35;100694.84;5073786;28;20032;-68
2022/11/07 03:30:16;;;;;;;11.15;3.10;;;;;;;14.66;61.64;100695.69;5073401;28;20041;-68
2022/11/07 03:32:42;;;;;;;9.23;2.90;;;;;;;14.65;61.64;100694.00;5053320;28;20560;-69
2022/11/07 03:35:09;;;;;;;8.02;3.00;;;;;;;14.63;61.37;100702.25;5053625;28;20399;-69
2022/11/07 03:37:36;;;;;;;8.05;3.42;;;;;;;14.63;61.48;100698.69;5053673;28;20491;-68
2022/11/07 03:40:03;;;;;;;13.50;3.33;;;;;;;14.61;61.47;100711.47;5053519;28;20041;-69
2022/11/07 03:42:29;;;;;;;10.05;3.25;;;;;;;14.61;61.63;100709.63;5070480;28;20090;-68
2022/11/07 03:44:57;;;;;;;9.63;2.90;;;;;;;14.63;61.69;100709.50;5073576;28;20102;-68
2022/11/07 03:47:23;;;;;;;8.70;3.05;;;;;;;14.65;61.45;100712.91;5073476;28;20049;-68
2022/11/07 03:49:50;;;;;;;9.23;3.15;;;;;;;14.65;61.82;100710.22;5073188;28;20102;-69
2022/11/07 03:52:16;;;;;;;10.68;3.08;;;;;;;14.64;61.30;100713.91;5071056;28;20490;-68
2022/11/07 03:54:47;;;;;;;8.07;2.80;;;;;;;14.63;61.52;100723.88;5053539;28;20041;-69
2022/11/07 03:57:13;;;;;;;6.85;3.15;;;;;;;14.63;61.43;100721.16;5053218;28;20076;-69
2022/11/07 03:59:40;;;;;;;8.63;2.85;;;;;;;14.63;61.47;100729.28;5053103;28;20102;-69
2022/11/07 04:02:06;;;;;;;8.48;2.75;;;;;;;14.63;61.66;100720.31;5035212;28;20090;-69
2022/11/07 04:04:35;;;;;;;10.48;3.15;;;;;;;14.62;61.48;100716.75;5073247;28;20040;-68
2022/11/07 04:07:01;;;;;;;7.72;3.80;;;;;;;14.62;62.04;100719.44;5073069;28;20041;-68
2022/11/07 04:09:28;;;;;;;9.00;2.92;;;;;;;14.65;61.82;100717.47;5073093;28;20090;-68
2022/11/07 04:17:26;;;;;;;6.75;2.70;;;;;;;14.71;62.02;100725.88;5073013;28;20049;-68
2022/11/07 04:19:54;;;;;;;8.18;3.03;;;;;;;14.74;61.94;100716.63;5072846;28;20038;-68
2022/11/07 04:22:23;;;;;;;11.38;4.00;;;;;;;14.76;61.98;100717.34;5054507;28;20442;-68
2022/11/07 04:24:51;;;;;;;12.48;3.95;;;;;;;14.79;62.26;100714.38;5053470;28;20719;-68
2022/11/07 04:30:18;;;;;;;9.30;3.25;;;;;;;14.84;61.92;100712.94;5052729;28;20091;-69
2022/11/07 04:32:52;;;;;;;9.88;3.05;;;;;;;14.86;62.04;100713.69;5052912;28;20470;-69
2022/11/07 04:35:22;;;;;;;6.30;3.22;;;;;;;14.89;62.08;100717.97;5053401;28;20057;-69
2022/11/07 04:37:49;;;;;;;7.00;3.22;;;;;;;14.91;62.19;100721.38;5052739;28;20090;-68
2022/11/07 04:40:17;;;;;;;8.02;2.88;;;;;;;14.93;61.97;100724.81;5052294;28;20083;-69
2022/11/07 04:42:44;;;;;;;13.48;3.05;;;;;;;14.94;62.24;100723.81;5054371;28;20045;-69
2022/11/07 04:45:12;;;;;;;12.20;3.33;;;;;;;14.95;62.11;100730.94;5072728;28;20048;-69
2022/11/07 04:47:39;;;;;;;8.38;2.97;;;;;;;14.96;62.11;100719.13;5071900;28;20056;-69
2022/11/07 04:50:08;;;;;;;8.60;2.95;;;;;;;14.96;61.74;100720.97;5072334;28;20048;-68
2022/11/07 04:52:35;;;;;;;8.60;3.00;;;;;;;14.96;61.60;100723.69;5070934;28;20041;-68
2022/11/07 04:55:07;;;;;;;12.23;3.80;;;;;;;14.96;61.93;100718.25;5072063;28;20106;-68
2022/11/07 04:57:33;;;;;;;11.52;2.85;;;;;;;14.94;61.77;100726.53;5072051;28;20098;-68
2022/11/07 05:00:01;;;;;;;11.57;3.30;;;;;;;14.94;61.49;100730.06;5071835;28;20494;-68
2022/11/07 05:02:27;;;;;;;7.28;2.40;;;;;;;14.91;61.81;100729.50;5068356;28;20036;-68
2022/11/07 05:04:54;;;;;;;9.63;3.35;;;;;;;14.89;61.62;100734.19;5033974;28;20501;-68
2022/11/07 05:07:21;;;;;;;9.43;3.00;;;;;;;14.88;61.44;100735.19;5052122;28;20060;-68
2022/11/07 05:09:47;;;;;;;12.32;4.07;;;;;;;14.87;61.52;100736.19;5051775;28;20045;-68
2022/11/07 05:12:14;;;;;;;9.65;3.50;;;;;;;14.84;61.56;100741.84;5051483;28;20041;-68
2022/11/07 05:14:41;;;;;;;8.95;2.85;;;;;;;14.83;61.76;100734.72;5052739;28;20565;-68
2022/11/07 05:17:13;;;;;;;11.05;2.80;;;;;;;14.81;61.60;100734.84;5053679;28;20410;-68
2022/11/07 05:19:42;;;;;;;9.00;2.75;;;;;;;14.82;61.52;100741.13;5053955;28;20036;-69
2022/11/07 05:24:59;;;;;;;12.73;2.55;;;;;;;14.83;61.57;100743.69;5051776;28;20094;-68
2022/11/07 05:27:25;;;;;;;9.02;2.90;;;;;;;14.84;61.84;100736.44;5051374;28;20065;-68
2022/11/07 05:29:52;;;;;;;10.55;2.70;;;;;;;14.86;61.83;100737.16;5051755;28;20045;-68
2022/11/07 05:32:18;;;;;;;11.85;3.13;;;;;;;14.87;61.82;100731.63;5066046;28;20082;-68
2022/11/07 05:34:49;;;;;;;11.70;2.83;;;;;;;14.90;61.99;100738.59;5071604;28;20514;-68
2022/11/07 05:37:16;;;;;;;8.30;3.17;;;;;;;14.92;61.75;100745.59;5071414;28;20048;-68
2022/11/07 05:39:42;;;;;;;9.68;2.70;;;;;;;14.92;62.05;100748.28;5071349;28;20094;-68
2022/11/07 05:42:09;;;;;;;8.27;2.47;;;;;;;14.94;61.86;100746.31;5070455;28;20048;-68
2022/11/07 05:44:38;;;;;;;7.65;2.17;;;;;;;14.95;62.15;100747.16;5071569;28;20101;-68
2022/11/07 05:47:04;;;;;;;16.27;2.90;;;;;;;14.96;61.73;100745.31;5071356;28;20742;-68
2022/11/07 05:49:31;;;;;;;12.65;2.85;;;;;;;14.98;61.66;100751.44;5071773;28;20106;-68
2022/11/07 05:51:57;;;;;;;10.88;3.05;;;;;;;14.98;62.00;100751.44;5071569;28;20094;-69
2022/11/07 05:54:29;;;;;;;9.45;3.40;;;;;;;14.99;61.59;100756.69;5052435;28;20045;-68
2022/11/07 05:56:56;;;;;;;11.50;2.83;;;;;;;15.01;61.64;100760.13;5050975;28;20091;-68
2022/11/07 05:59:23;;;;;;;10.68;3.25;;;;;;;15.02;62.09;100751.00;5051035;28;20044;-68
2022/11/07 06:01:51;;;;;;;15.85;2.78;;;;;;;15.05;61.96;100756.16;5050783;28;20037;-69
2022/11/07 06:04:22;;;;;;;10.27;2.95;;;;;;;15.07;61.80;100751.44;5068557;28;20379;-68
2022/11/07 06:06:48;;;;;;;12.07;2.45;;;;;;;15.09;61.96;100748.59;5053368;28;20037;-68
2022/11/07 06:09:15;;;;;;;10.18;2.38;;;;;;;15.09;61.85;100749.47;5071116;28;20526;-68
2022/11/07 06:11:41;;;;;;;11.05;2.45;;;;;;;15.09;61.54;100751.31;5070919;28;20096;-68
2022/11/07 06:14:08;;;;;;;10.18;3.78;;;;;;;15.10;61.82;100747.59;5073204;28;20045;-68
2022/11/07 06:16:42;;;;;;;9.07;2.10;;;;;;;15.10;61.71;100748.47;5055269;28;20055;-68
2022/11/07 06:19:08;;;;;;;10.43;2.75;;;;;;;15.13;61.75;100747.31;5037372;28;20597;-68
2022/11/07 06:21:35;;;;;;;14.23;3.40;;;;;;;15.13;61.84;100740.06;5055021;28;20056;-70
2022/11/07 06:24:01;;;;;;;8.50;2.90;;;;;;;15.14;61.62;100732.81;5071097;28;20040;-68
2022/11/07 06:26:29;;;;;;;11.93;2.97;;;;;;;15.13;61.80;100742.78;5074957;28;20495;-68
2022/11/07 06:28:55;;;;;;;7.88;2.65;;;;;;;15.12;61.45;100743.75;5068910;28;20029;-69
2022/11/07 06:31:22;;;;;;;9.38;2.85;;;;;;;15.12;61.68;100749.19;5054782;28;20041;-68
2022/11/07 06:33:52;;;;;;;8.52;2.63;;;;;;;15.14;61.63;100754.44;5066743;28;20043;-68
2022/11/07 06:36:19;;;;;;;13.20;3.03;;;;;;;15.14;61.52;100755.31;5074954;28;20040;-68
2022/11/07 06:38:52;;;;;;;11.68;2.75;;;;;;;15.14;61.65;100752.59;5075004;28;20437;-68
2022/11/07 06:41:18;;;;;;;9.75;2.53;;;;;;;15.15;61.63;100762.41;5074896;28;20041;-69
2022/11/07 06:43:45;;;;;;;12.00;3.60;;;;;;;15.16;61.25;100760.56;5074530;28;20379;-68
2022/11/07 06:46:13;;;;;;;9.18;2.67;;;;;;;15.18;61.49;100762.13;5056629;28;20056;-68
2022/11/07 06:48:42;;;;;;;12.70;2.90;;;;;;;15.19;61.53;100768.41;5074393;28;20106;-67
2022/11/07 06:51:09;;;;;;;12.15;2.80;;;;;;;15.20;61.46;100764.69;5056735;28;20098;-68
2022/11/07 06:53:37;;;;;;;9.88;2.60;;;;;;;15.23;61.49;100769.84;5063158;28;20095;-69
2022/11/07 06:56:06;;;;;;;8.07;2.78;;;;;;;15.24;61.41;100772.41;5054626;28;20041;-68
2022/11/07 06:58:33;;;;;;;8.20;2.95;;;;;;;15.24;61.59;100766.13;5054318;28;20094;-68
2022/11/07 07:01:02;;;;;;;8.80;2.40;;;;;;;15.25;61.66;100774.09;5054177;28;20052;-69
2022/11/07 07:03:29;;;;;;;7.90;2.88;;;;;;;15.27;61.23;100774.81;5055204;28;20471;-68
2022/11/07 07:06:03;;;;;;;9.77;3.03;;;;;;;15.30;61.25;100775.53;5054312;28;20499;-68
2022/11/07 07:08:30;;;;;;;6.72;2.45;;;;;;;15.34;61.49;100771.56;5054281;28;20513;-68
2022/11/07 07:11:01;;;;;;;8.73;2.33;;;;;;;15.36;61.69;100775.81;5053821;28;20053;-68
2022/11/07 07:13:28;;;;;;;7.63;2.38;;;;;;;15.37;61.16;100780.25;5054937;28;20049;-69
2022/11/07 07:15:57;;;;;;;6.88;2.40;;;;;;;15.39;61.22;100791.78;5053874;28;20052;-68
2022/11/07 07:18:24;;;;;;;11.23;3.08;;;;;;;15.40;61.52;100789.94;5054208;28;20041;-67
2022/11/07 07:21:11;;;;;;;17.38;3.20;;;;;;;15.42;61.58;100787.94;5053896;28;20106;-68
2022/11/07 07:23:38;;;;;;;11.52;2.63;;;;;;;15.46;61.45;100792.06;5063797;28;20114;-68
2022/11/07 07:26:08;;;;;;;11.38;2.65;;;;;;;15.46;61.67;100795.63;5073357;28;20766;-68
2022/11/07 07:28:36;;;;;;;9.18;2.38;;;;;;;15.50;61.62;100798.91;5062030;28;20063;-68
2022/11/07 07:31:21;;;;;;;10.88;2.90;;;;;;;15.51;61.45;100800.63;5053765;28;20476;-67
2022/11/07 07:33:48;;;;;;;12.52;2.83;;;;;;;15.54;61.49;100805.75;5053800;28;20041;-66
2022/11/07 07:36:16;;;;;;;11.07;2.42;;;;;;;15.56;61.59;100804.59;5036224;28;20053;-66
2022/11/07 07:38:47;;;;;;;10.45;2.70;;;;;;;15.60;61.51;100816.03;5054761;28;20048;-66
2022/11/07 07:41:13;;;;;;;11.23;2.70;;;;;;;15.63;61.34;100799.53;5035928;28;20057;-66
2022/11/07 07:43:40;;;;;;;7.88;2.55;;;;;;;15.66;61.35;100807.38;5060359;28;20040;-66
2022/11/07 07:46:07;;;;;;;18.67;3.35;;;;;;;15.70;61.20;100822.34;5053733;28;20056;-66
2022/11/07 07:48:34;;;;;;;9.10;2.60;;;;;;;15.73;61.10;100822.06;5053744;28;20045;-65
2022/11/07 07:51:01;;;;;;;14.57;2.65;;;;;;;15.76;61.15;100816.34;5056327;28;20044;-66
2022/11/07 07:53:27;;;;;;;14.70;3.25;;;;;;;15.78;61.29;100810.78;5069262;28;20033;-66
2022/11/07 07:55:56;;;;;;;12.70;2.80;;;;;;;15.80;61.21;100823.19;5073226;28;20113;-66
2022/11/07 07:58:24;;;;;;;8.07;2.53;;;;;;;15.83;61.52;100822.03;5073224;28;20044;-66
2022/11/07 08:00:57;;;;;;;11.88;3.10;;;;;;;15.84;61.00;100819.19;5070063;28;20063;-66
2022/11/07 08:03:25;;;;;;;8.13;2.53;;;;;;;15.86;61.39;100819.91;5063852;28;20037;-66
2022/11/07 08:06:01;;;;;;;9.88;3.00;;;;;;;15.87;61.14;100827.03;5035167;28;20053;-66
2022/11/07 08:08:27;;;;;;;7.85;2.45;;;;;;;15.90;61.30;100836.72;5054514;28;20033;-67
2022/11/07 08:11:06;;;;;;;9.05;2.80;;;;;;;15.93;61.46;100828.31;5059008;28;20487;-67
2022/11/07 08:13:33;;;;;;;10.07;2.80;;;;;;;15.97;61.28;100840.56;5073099;28;20051;-66
2022/11/07 08:16:04;;;;;;;10.10;2.50;;;;;;;16.01;61.13;100847.41;5072948;28;20098;-65
2022/11/07 08:18:30;;;;;;;10.82;2.35;;;;;;;16.04;61.42;100835.44;5072800;28;20049;-65
2022/11/07 08:20:57;;;;;;;9.95;2.72;;;;;;;16.10;61.47;100840.28;5073057;28;20036;-66
2022/11/07 08:23:23;;;;;;;10.00;2.45;;;;;;;16.14;61.25;100837.13;5072257;28;20041;-66
2022/11/07 08:25:59;;;;;;;10.20;2.72;;;;;;;16.19;61.32;100840.25;5071134;28;20048;-65
2022/11/07 08:28:28;;;;;;;10.13;2.53;;;;;;;16.24;61.43;100837.09;5071047;28;20552;-66
2022/11/07 08:31:03;;;;;;;14.18;3.13;;;;;;;16.30;61.32;100841.09;5071239;28;20049;-66
2022/11/07 08:33:30;;;;;;;10.77;2.40;;;;;;;16.34;61.43;100837.94;5070712;28;20098;-66
2022/11/07 08:36:01;;;;;;;6.47;2.03;;;;;;;16.40;61.39;100841.94;5069887;28;20048;-66
2022/11/07 08:38:29;;;;;;;7.97;2.30;;;;;;;16.43;61.22;100842.50;5070707;28;20044;-66
2022/11/07 08:40:56;;;;;;;5.93;2.17;;;;;;;16.50;61.35;100848.19;5072050;28;20475;-66
2022/11/07 08:43:23;;;;;;;9.60;2.33;;;;;;;16.56;61.12;100836.75;5055293;28;20114;-66
2022/11/07 08:45:52;;;;;;;11.38;2.25;;;;;;;16.62;61.28;100846.16;5053818;28;20399;-67
2022/11/07 08:48:18;;;;;;;12.45;2.42;;;;;;;16.68;61.17;100851.03;5064891;28;20032;-67
2022/11/07 08:50:49;;;;;;;9.93;2.25;;;;;;;16.74;61.25;100845.00;5071884;28;20552;-67
2022/11/07 08:53:16;;;;;;;9.18;2.70;;;;;;;16.79;60.94;100848.13;5063712;28;20045;-67
2022/11/07 08:55:43;;;;;;;10.70;2.75;;;;;;;16.87;60.91;100861.78;5051979;28;20077;-67
2022/11/07 08:58:09;;;;;;;9.57;2.08;;;;;;;16.93;60.85;100860.34;5052093;28;20057;-67
2022/11/07 09:00:36;;;;;;;12.52;2.80;;;;;;;16.98;60.77;100869.75;5071222;28;20044;-67
2022/11/07 09:03:04;;;;;;;7.72;2.65;;;;;;;17.03;61.09;100866.56;5065335;28;20065;-68
2022/11/07 09:05:52;;;;;;;7.03;2.20;;;;;;;17.13;60.89;100872.84;5051798;28;20080;-67
2022/11/07 09:08:18;;;;;;;10.93;2.33;;;;;;;17.20;61.00;100873.09;5051144;28;20259;-67
2022/11/07 09:10:45;;;;;;;11.20;2.72;;;;;;;17.26;60.55;100878.78;5051518;28;20098;-68
2022/11/07 09:13:13;;;;;;;8.80;2.50;;;;;;;17.31;60.56;100890.03;5052287;28;20040;-67
2022/11/07 09:15:43;;;;;;;6.97;2.55;;;;;;;17.35;60.62;100886.00;5051965;28;20143;-67
2022/11/07 09:18:16;;;;;;;10.75;2.03;;;;;;;17.38;60.08;100887.56;5051277;28;20151;-67
2022/11/07 09:20:42;;;;;;;12.60;3.10;;;;;;;17.40;60.17;100899.13;5051392;28;20041;-67
2022/11/07 09:23:09;;;;;;;7.93;2.42;;;;;;;17.40;60.00;100882.84;5052414;28;20060;-67
2022/11/07 09:25:35;;;;;;;13.00;2.50;;;;;;;17.37;60.13;100903.00;5051449;28;20523;-67
2022/11/07 09:28:03;;;;;;;11.57;2.50;;;;;;;17.35;60.06;100890.59;5051311;28;20041;-67
2022/11/07 09:30:29;;;;;;;10.45;2.78;;;;;;;17.35;60.20;100904.16;5051246;28;20098;-67
2022/11/07 09:32:56;;;;;;;6.97;2.42;;;;;;;17.34;59.88;100905.16;5052079;28;20045;-67
2022/11/07 09:35:24;;;;;;;10.18;2.55;;;;;;;17.35;60.06;100898.72;5051897;28;20047;-67
2022/11/07 09:37:51;;;;;;;9.98;2.97;;;;;;;17.35;59.99;100906.88;5051194;28;20398;-67
2022/11/07 09:40:31;;;;;;;8.13;2.30;;;;;;;17.35;59.99;100909.59;5051313;28;20033;-67
2022/11/07 09:43:27;;;;;;;13.32;3.00;;;;;;;17.36;59.73;100908.56;5066239;28;20028;-68
2022/11/07 09:46:13;;;;;;;14.60;3.60;;;;;;;17.38;60.01;100914.72;5071340;28;20048;-65
2022/11/07 09:48:45;;;;;;;7.20;2.47;;;;;;;17.39;59.88;100920.00;5070758;28;20491;-65
2022/11/07 09:51:45;;;;;;;8.25;2.55;;;;;;;17.39;60.00;100916.41;5071134;28;20485;-65
2022/11/07 09:54:23;;;;;;;8.38;2.95;;;;;;;17.39;59.91;100916.41;5039154;28;20487;-65
2022/11/07 09:56:51;;;;;;;12.63;3.42;;;;;;;17.40;59.82;100916.25;5050926;28;20045;-63
2022/11/07 09:59:31;;;;;;;9.63;2.85;;;;;;;17.41;60.11;100919.84;5051086;28;20045;-67
2022/11/07 10:01:57;;;;;;;8.98;2.40;;;;;;;17.42;60.11;100922.41;5033027;28;20114;-67
2022/11/07 10:04:25;;;;;;;6.22;2.13;;;;;;;17.44;59.75;100922.25;5050783;28;20060;-67
2022/11/07 10:07:03;;;;;;;12.20;2.70;;;;;;;17.47;59.77;100920.09;5032929;28;20514;-67
2022/11/07 10:09:45;;;;;;;9.23;3.17;;;;;;;17.47;59.78;100924.66;5050226;28;20049;-67
2022/11/07 10:12:23;;;;;;;12.52;3.67;;;;;;;17.52;59.77;100921.50;5050145;28;20081;-67
2022/11/07 10:15:17;;;;;;;10.25;2.88;;;;;;;17.58;59.97;100920.88;5050253;28;20048;-67
2022/11/07 10:18:00;;;;;;;13.73;3.80;;;;;;;17.66;59.88;100920.97;5050436;28;20040;-66
2022/11/07 10:20:48;;;;;;;8.25;2.67;;;;;;;17.71;60.22;100932.25;5049865;28;20041;-66
2022/11/07 10:23:33;;;;;;;10.18;2.90;;;;;;;17.75;60.13;100928.22;5032141;28;20048;-67
2022/11/07 10:26:08;;;;;;;12.23;2.85;;;;;;;17.79;59.98;100924.19;5050940;28;20142;-66
2022/11/07 10:28:45;;;;;;;10.32;2.67;;;;;;;17.82;59.89;100932.03;5032691;28;20521;-66
2022/11/07 10:31:13;;;;;;;12.85;2.50;;;;;;;17.85;59.90;100933.63;5050935;28;20060;-67
2022/11/07 10:33:46;;;;;;;9.45;2.92;;;;;;;17.86;59.49;100941.63;5050308;28;20102;-66
2022/11/07 10:36:27;;;;;;;10.35;2.88;;;;;;;17.85;59.67;100939.91;5050715;28;20060;-67
2022/11/07 10:38:54;;;;;;;14.18;2.78;;;;;;;17.85;59.58;100944.50;5050568;28;20500;-67
2022/11/07 10:41:26;;;;;;;10.85;2.53;;;;;;;17.84;59.43;100942.78;5050614;28;20041;-66
2022/11/07 10:43:59;;;;;;;9.25;2.25;;;;;;;17.81;59.33;100941.19;5050231;28;20091;-67
2022/11/07 10:46:32;;;;;;;9.88;3.05;;;;;;;17.81;59.58;100937.63;5050563;28;20107;-66
2022/11/07 10:49:01;;;;;;;8.18;2.30;;;;;;;17.80;59.14;100928.63;5050341;28;20059;-67
2022/11/07 10:51:39;;;;;;;10.65;2.80;;;;;;;17.79;59.24;100933.22;5050509;28;20052;-66
2022/11/07 10:54:26;;;;;;;14.45;2.63;;;;;;;17.79;59.50;100938.63;5050489;28;20395;-66
2022/11/07 10:57:05;;;;;;;4.93;1.92;;;;;;;17.82;59.33;100939.34;5050218;28;20075;-67
2022/11/07 10:59:35;;;;;;;8.85;2.42;;;;;;;17.84;59.34;100938.22;5051635;28;20044;-66
2022/11/07 11:02:18;;;;;;;11.45;2.95;;;;;;;17.86;59.51;100946.22;5054004;28;20116;-67
2022/11/07 11:05:01;;;;;;;8.13;2.22;;;;;;;17.88;59.05;100939.63;5054425;28;20048;-66
2022/11/07 11:07:39;;;;;;;10.93;2.80;;;;;;;17.91;59.22;100946.59;5053913;28;20571;-67
2022/11/07 11:10:21;;;;;;;10.95;3.22;;;;;;;17.93;59.08;100933.72;5060046;28;20087;-67
2022/11/07 11:12:48;;;;;;;10.25;2.88;;;;;;;17.96;59.25;100944.28;5073734;28;20098;-67
2022/11/07 11:15:18;;;;;;;7.47;2.45;;;;;;;17.97;59.07;100949.56;5073644;28;20486;-67
2022/11/07 11:17:46;;;;;;;9.93;2.65;;;;;;;18.00;59.29;100940.25;5073611;28;20052;-67
2022/11/07 11:20:25;;;;;;;10.05;2.65;;;;;;;18.03;59.22;100937.22;5073862;28;20052;-66
2022/11/07 11:22:52;;;;;;;11.63;3.10;;;;;;;18.07;58.90;100938.59;5073418;28;20094;-67
2022/11/07 11:25:23;;;;;;;11.75;3.00;;;;;;;18.09;58.80;100918.41;5073774;28;20040;-66
2022/11/07 11:28:02;;;;;;;13.40;3.35;;;;;;;18.12;58.87;100924.56;5073314;28;20060;-67
2022/11/07 11:30:29;;;;;;;13.07;2.97;;;;;;;18.15;59.03;100925.09;5073591;28;20461;-67
2022/11/07 11:33:02;;;;;;;11.30;3.03;;;;;;;18.16;58.93;100921.38;5073303;28;20380;-67
2022/11/07 11:35:36;;;;;;;10.85;2.80;;;;;;;18.21;58.62;100932.63;5073536;28;20044;-66
2022/11/07 11:38:16;;;;;;;6.53;2.50;;;;;;;18.25;58.71;100927.72;5072984;28;20410;-67
2022/11/07 11:40:47;;;;;;;;;;;;;;;18.29;58.53;100923.69;5073935;28;20041;-66
2022/11/07 11:43:22;;;;;;;12.32;3.08;;;;;;;18.33;58.40;100931.38;5073130;28;19982;-67
2022/11/07 11:46:01;;;;;;;9.93;2.03;;;;;;;18.32;58.44;100921.50;5073481;28;20498;-67